Time;durP1;ratioP1;P1;durP2;ratioP2;P2;SDS_P1;SDS_P2;PMS_P1;PMS_P2;Temp;Humidity;BMP_temperature;BMP_pressure;BME280_temperature;BME280_humidity;BME280_pressure;Samples;Min_cycle;Max_cycle;Signal;HPM_P1;HPM_P2
2023/09/11 00:01:01;;;;;;;;;;;;;;;29.60;40.29;94346.63;4956097;28;7223;-55
2023/09/11 00:03:27;;;;;;;;;;;;;;;29.58;39.92;94343.66;4973909;28;7066;-55
2023/09/11 00:06:03;;;;;;;;;;;;;;;29.59;40.43;94350.66;4964335;28;6961;-55
2023/09/11 00:08:38;;;;;;;;;;;;;;;29.58;39.93;94347.13;4967232;28;7261;-55
2023/09/11 00:11:14;;;;;;;;;;;;;;;29.60;40.31;94349.41;4955501;28;7237;-56
2023/09/11 00:13:49;;;;;;;;;;;;;;;29.57;39.30;94356.00;4965773;28;6985;-55
2023/09/11 00:16:24;;;;;;;;;;;;;;;29.54;40.34;94340.44;4947984;28;7406;-55
2023/09/11 00:18:56;;;;;;;;;;;;;;;29.52;39.54;94338.22;5009151;28;8902;-55
2023/09/11 00:21:39;;;;;;;;;;;;;;;29.53;39.62;94339.72;5008360;28;7248;-56
2023/09/11 00:24:25;;;;;;;;;;;;;;;29.52;39.56;94340.22;5001682;28;7224;-56
2023/09/11 00:27:20;;;;;;;;;;;;;;;29.56;40.34;94343.41;5013309;28;7032;-56
2023/09/11 00:30:03;;;;;;;;;;;;;;;29.54;40.34;94332.13;4956201;28;6924;-56
2023/09/11 00:36:04;;;;;;;;;;;;;;;29.51;40.38;94328.44;4958423;28;7186;-55
2023/09/11 00:38:32;;;;;;;;;;;;;;;29.51;39.41;94333.22;4967667;28;7273;-56
2023/09/11 00:40:58;;;;;;;;;;;;;;;29.50;39.36;94331.72;4939311;28;8998;-56
2023/09/11 00:43:44;;;;;;;;;;;;;;;29.47;39.24;94330.03;4966062;28;7025;-56
2023/09/11 00:46:21;;;;;;;;;;;;;;;29.47;40.06;94330.75;4951919;28;7239;-56
2023/09/11 00:48:53;;;;;;;;;;;;;;;29.47;39.49;94330.03;4943078;28;7338;-56
2023/09/11 00:51:21;;;;;;;;;;;;;;;29.50;39.49;94337.25;4968615;28;7154;-56
2023/09/11 00:53:49;;;;;;;;;;;;;;;29.50;39.80;94337.25;4962580;28;8485;-56
2023/09/11 00:56:16;;;;;;;;;;;;;;;29.48;40.11;94334.28;4937160;28;7129;-57
2023/09/11 00:58:45;;;;;;;;;;;;;;;29.49;39.33;94330.25;4951732;28;7654;-56
2023/09/11 01:01:12;;;;;;;;;;;;;;;29.53;40.23;94336.19;4950784;28;9227;-56
2023/09/11 01:03:38;;;;;;;;;;;;;;;29.52;39.36;94326.38;4958827;28;8795;-56
2023/09/11 01:06:10;;;;;;;;;;;;;;;29.52;39.95;94323.59;4951813;28;7201;-63
2023/09/11 01:08:40;;;;;;;;;;;;;;;29.52;39.53;94321.59;5010054;28;7209;-63
2023/09/11 01:11:31;;;;;;;;;;;;;;;29.47;40.27;94319.69;5007324;28;9128;-63
2023/09/11 01:13:58;;;;;;;;;;;;;;;29.46;40.27;94320.97;4993648;28;6985;-63
2023/09/11 01:16:47;;;;;;;;;;;;;;;29.48;39.73;94323.19;5014966;28;7376;-63
2023/09/11 01:19:41;;;;;;;;;;;;;;;29.48;39.20;94317.66;5004893;28;7510;-62
2023/09/11 01:22:49;;;;;;;;;;;;;;;29.47;39.68;94316.91;5002801;28;7355;-63
2023/09/11 01:25:55;;;;;;;;;;;;;;;29.49;40.06;94319.88;4941712;28;7282;-62
2023/09/11 01:28:59;;;;;;;;;;;;;;;29.48;38.82;94315.63;4941156;28;8750;-63
2023/09/11 01:31:27;;;;;;;;;;;;;;;29.46;38.85;94311.91;4955586;28;9457;-62
2023/09/11 01:34:00;;;;;;;;;;;;;;;29.44;38.97;94306.16;4951716;28;6997;-63
2023/09/11 01:36:40;;;;;;;;;;;;;;;29.44;38.98;94312.44;4957828;28;7410;-63
2023/09/11 01:39:20;;;;;;;;;;;;;;;29.42;38.99;94311.50;4958492;28;7276;-63
2023/09/11 01:41:50;;;;;;;;;;;;;;;29.46;39.31;94309.13;4944521;28;7397;-63
2023/09/11 01:44:36;;;;;;;;;;;;;;;29.46;39.31;94309.13;4951174;28;8771;-62
2023/09/11 01:47:07;;;;;;;;;;;;;;;29.39;39.08;94305.00;4952404;28;7421;-63
2023/09/11 01:49:50;;;;;;;;;;;;;;;29.39;39.76;94307.78;4954816;28;7923;-63
2023/09/11 01:52:35;;;;;;;;;;;;;;;29.43;39.00;94304.66;4956240;28;7361;-63
2023/09/11 01:55:38;;;;;;;;;;;;;;;29.45;38.90;94307.66;4955553;28;9102;-63
2023/09/11 01:58:05;;;;;;;;;;;;;;;29.42;39.65;94303.19;4950708;28;7253;-63
2023/09/11 02:01:07;;;;;;;;;;;;;;;29.42;39.67;94314.28;4945151;28;6986;-63
2023/09/11 02:04:18;;;;;;;;;;;;;;;29.39;39.50;94299.47;4964436;28;7239;-62
2023/09/11 02:06:55;;;;;;;;;;;;;;;29.39;38.58;94309.78;4911069;29;9268;-62
2023/09/11 02:09:23;;;;;;;;;;;;;;;29.40;38.85;94306.50;4896072;29;7218;-62
2023/09/11 02:11:49;;;;;;;;;;;;;;;29.38;38.92;94300.75;4912335;29;6972;-62
2023/09/11 02:14:15;;;;;;;;;;;;;;;29.34;39.63;94296.84;4909892;29;7276;-63
2023/09/11 02:16:41;;;;;;;;;;;;;;;29.33;38.95;94296.09;4915507;29;8738;-62
2023/09/11 02:19:13;;;;;;;;;;;;;;;29.36;39.87;94299.81;4914821;29;7318;-62
2023/09/11 02:21:59;;;;;;;;;;;;;;;29.37;38.94;94295.75;4909995;29;7227;-61
2023/09/11 02:25:01;;;;;;;;;;;;;;;29.35;38.61;94298.31;4915762;29;7103;-62
2023/09/11 02:27:42;;;;;;;;;;;;;;;29.34;39.43;94302.38;4859609;29;7187;-63
2023/09/11 02:30:24;;;;;;;;;;;;;;;29.30;39.62;94304.72;4855615;29;9139;-61
2023/09/11 02:33:39;;;;;;;;;;;;;;;29.34;39.26;94302.38;4853749;29;7896;-62
2023/09/11 02:36:07;;;;;;;;;;;;;;;29.34;39.36;94305.16;4852498;29;7912;-62
2023/09/11 02:38:51;;;;;;;;;;;;;;;29.34;38.86;94305.88;4856055;29;7206;-62
2023/09/11 02:42:02;;;;;;;;;;;;;;;29.34;38.63;94305.16;4858958;29;7160;-63
2023/09/11 02:44:43;;;;;;;;;;;;;;;29.30;39.33;94301.94;4930621;28;7326;-62
2023/09/11 02:47:11;;;;;;;;;;;;;;;29.28;39.34;94304.50;4951087;28;9387;-62
2023/09/11 02:49:55;;;;;;;;;;;;;;;29.31;39.17;94300.66;4934786;28;9101;-63
2023/09/11 02:52:22;;;;;;;;;;;;;;;29.28;38.53;94310.03;4953085;28;9425;-62
2023/09/11 02:55:00;;;;;;;;;;;;;;;29.29;39.28;94303.97;4947610;28;9141;-62
2023/09/11 02:57:38;;;;;;;;;;;;;;;29.29;38.81;94301.22;4950702;28;8777;-63
2023/09/11 03:00:08;;;;;;;;;;;;;;;29.30;39.10;94304.72;4947805;28;9300;-63
2023/09/11 03:02:34;;;;;;;;;;;;;;;29.28;39.43;94298.97;4981552;28;9233;-62
2023/09/11 03:05:01;;;;;;;;;;;;;;;29.27;38.55;94300.25;4992569;28;7224;-62
2023/09/11 03:07:39;;;;;;;;;;;;;;;29.28;39.16;94299.72;4997005;28;9058;-62
2023/09/11 03:10:06;;;;;;;;;;;;;;;29.28;38.58;94298.97;5017313;28;6973;-62
2023/09/11 03:12:49;;;;;;;;;;;;;;;29.23;38.82;94297.81;5009736;28;6943;-62
2023/09/11 03:15:15;;;;;;;;;;;;;;;29.25;38.84;94294.50;5007763;28;7266;-62
2023/09/11 03:18:03;;;;;;;;;;;;;;;29.24;38.52;94299.31;5019500;28;7332;-62
2023/09/11 03:20:40;;;;;;;;;;;;;;;29.25;38.31;94294.50;5020378;28;8744;-62
2023/09/11 03:23:36;;;;;;;;;;;;;;;29.25;39.42;94300.81;4986188;28;8508;-62
2023/09/11 03:26:19;;;;;;;;;;;;;;;29.21;39.26;94305.19;4958769;28;7168;-63
2023/09/11 03:29:02;;;;;;;;;;;;;;;29.18;39.21;94300.69;4968917;28;7815;-63
2023/09/11 03:31:28;;;;;;;;;;;;;;;29.19;38.79;94291.84;4950370;28;7085;-63
2023/09/11 03:33:55;;;;;;;;;;;;;;;29.20;39.25;94298.13;4967826;28;7054;-63
2023/09/11 03:36:25;;;;;;;;;;;;;;;29.20;39.11;94289.81;4967944;28;7276;-63
2023/09/11 03:38:51;;;;;;;;;;;;;;;29.19;38.57;94299.44;4969552;28;6988;-63
2023/09/11 03:41:17;;;;;;;;;;;;;;;29.19;38.01;94300.16;4952487;28;7285;-63
2023/09/11 03:43:43;;;;;;;;;;;;;;;29.19;38.56;94296.66;4968628;28;7267;-63
2023/09/11 03:46:12;;;;;;;;;;;;;;;29.21;39.10;94294.09;4967776;28;7323;-62
2023/09/11 03:48:38;;;;;;;;;;;;;;;29.17;38.36;94288.88;4967680;28;7254;-63
2023/09/11 03:51:04;;;;;;;;;;;;;;;29.14;38.43;94283.66;4966620;28;7241;-62
2023/09/11 03:53:30;;;;;;;;;;;;;;;29.13;38.83;94288.44;4968251;28;7277;-63
2023/09/11 03:55:57;;;;;;;;;;;;;;;29.11;38.40;94296.53;4955993;28;7269;-63
2023/09/11 03:58:26;;;;;;;;;;;;;;;29.07;38.67;94283.03;4964241;28;8833;-63
2023/09/11 04:00:56;;;;;;;;;;;;;;;29.10;38.44;94286.75;4972058;28;9088;-63
2023/09/11 04:03:25;;;;;;;;;;;;;;;29.05;38.04;94282.06;5005710;28;8906;-63
2023/09/11 04:05:56;;;;;;;;;;;;;;;29.08;38.47;94284.50;4996862;28;7116;-63
2023/09/11 04:08:22;;;;;;;;;;;;;;;29.07;38.17;94283.03;4996849;28;7211;-62
2023/09/11 04:11:03;;;;;;;;;;;;;;;29.06;38.65;94278.75;5018949;28;7528;-63
2023/09/11 04:13:31;;;;;;;;;;;;;;;29.08;38.91;94284.50;5006711;28;7554;-63
2023/09/11 04:16:00;;;;;;;;;;;;;;;29.08;38.75;94280.97;5008832;28;8787;-63
2023/09/11 04:18:31;;;;;;;;;;;;;;;29.07;38.64;94274.72;5016870;28;7250;-63
2023/09/11 04:21:05;;;;;;;;;;;;;;;29.07;37.86;94280.25;5006803;28;6992;-63
2023/09/11 04:23:41;;;;;;;;;;;;;;;29.04;38.45;94269.50;4996223;28;7239;-63
2023/09/11 04:26:53;;;;;;;;;;;;;;;29.06;38.42;94266.94;5014130;28;9107;-62
2023/09/11 04:29:31;;;;;;;;;;;;;;;29.04;38.94;94270.25;4948289;28;6980;-63
2023/09/11 04:32:13;;;;;;;;;;;;;;;29.03;38.68;94274.31;4967332;28;7064;-63
2023/09/11 04:35:08;;;;;;;;;;;;;;;29.04;39.20;94278.56;4966450;28;9109;-57
2023/09/11 04:37:54;;;;;;;;;;;;;;;29.03;39.06;94279.84;4966237;28;6986;-57
2023/09/11 04:40:57;;;;;;;;;;;;;;;29.02;39.05;94280.38;4950505;28;7196;-56
2023/09/11 04:43:23;;;;;;;;;;;;;;;29.00;38.68;94274.63;4926017;28;6993;-56
2023/09/11 04:49:28;;;;;;;;;;;;;;;28.99;38.20;94267.59;4934956;28;7359;-57
2023/09/11 04:51:55;;;;;;;;;;;;;;;28.98;38.62;94269.63;4919867;29;6949;-57
2023/09/11 04:54:29;;;;;;;;;;;;;;;28.95;38.83;94273.47;4931845;28;7245;-56
2023/09/11 04:57:05;;;;;;;;;;;;;;;28.97;38.39;94275.72;4914334;29;7520;-57
2023/09/11 04:59:42;;;;;;;;;;;;;;;28.95;38.96;94279.00;4936094;29;7185;-57
2023/09/11 05:02:18;;;;;;;;;;;;;;;28.95;38.82;94278.25;4920737;29;9261;-57
2023/09/11 05:04:51;;;;;;;;;;;;;;;28.95;39.58;94273.47;4914628;29;7248;-57
2023/09/11 05:07:47;;;;;;;;;;;;;;;28.97;39.19;94276.44;4957546;28;8754;-57
2023/09/11 05:10:41;;;;;;;;;;;;;;;28.96;39.62;94277.72;4901515;29;8553;-57
2023/09/11 05:13:13;;;;;;;;;;;;;;;28.96;40.08;94274.97;4915585;29;7261;-57
2023/09/11 05:15:55;;;;;;;;;;;;;;;28.96;40.12;94276.97;4899481;29;7175;-57
2023/09/11 05:18:30;;;;;;;;;;;;;;;28.94;40.25;94280.28;4925136;29;8788;-57
2023/09/11 05:21:36;;;;;;;;;;;;;;;28.94;40.19;94283.06;4921918;29;9073;-57
2023/09/11 05:24:06;;;;;;;;;;;;;;;28.92;39.54;94284.88;4919797;29;7252;-57
2023/09/11 05:26:33;;;;;;;;;;;;;;;28.91;39.80;94283.38;4912651;29;8803;-57
2023/09/11 05:29:55;;;;;;;;;;;;;;;28.91;39.34;94283.38;4929744;29;7059;-57
2023/09/11 05:32:42;;;;;;;;;;;;;;;28.88;39.72;94285.19;4876256;29;7206;-57
2023/09/11 05:35:10;;;;;;;;;;;;;;;28.89;39.21;94281.16;4874909;29;7425;-57
2023/09/11 05:38:08;;;;;;;;;;;;;;;28.89;39.86;94286.69;4875232;29;6992;-57
2023/09/11 05:40:34;;;;;;;;;;;;;;;28.84;39.19;94284.03;4882876;29;7232;-57
2023/09/11 05:43:03;;;;;;;;;;;;;;;28.84;39.66;94279.22;4859255;29;7166;-57
2023/09/11 05:45:38;;;;;;;;;;;;;;;28.87;39.91;94282.94;4853015;29;9284;-61
2023/09/11 05:48:11;;;;;;;;;;;;;;;28.86;39.71;94281.47;4875516;29;9068;-61
2023/09/11 05:50:38;;;;;;;;;;;;;;;28.86;39.65;94284.25;4882127;29;6935;-63
2023/09/11 05:53:06;;;;;;;;;;;;;;;28.86;39.96;94289.78;4877121;29;7251;-62
2023/09/11 05:55:46;;;;;;;;;;;;;;;28.85;39.51;94289.03;4928665;29;7443;-61
2023/09/11 05:58:23;;;;;;;;;;;;;;;28.85;39.35;94282.75;4917010;29;7077;-60
2023/09/11 06:00:59;;;;;;;;;;;;;;;28.86;39.59;94287.75;4928811;28;7208;-60
2023/09/11 06:03:26;;;;;;;;;;;;;;;28.85;39.12;94289.03;4938829;28;9494;-61
2023/09/11 06:05:51;;;;;;;;;;;;;;;28.84;38.85;94290.31;4961602;28;8863;-61
2023/09/11 06:08:22;;;;;;;;;;;;;;;28.83;40.08;94290.84;5006364;28;7192;-60
2023/09/11 06:10:48;;;;;;;;;;;;;;;28.82;39.35;94284.56;4992269;28;7328;-61
2023/09/11 06:13:14;;;;;;;;;;;;;;;28.81;40.07;94279.56;5016827;28;9540;-60
2023/09/11 06:15:41;;;;;;;;;;;;;;;28.82;40.08;94286.56;5001872;28;7429;-60
2023/09/11 06:18:09;;;;;;;;;;;;;;;28.82;39.61;94286.56;4999623;28;7227;-60
2023/09/11 06:20:38;;;;;;;;;;;;;;;28.80;40.40;94284.34;5010474;28;9172;-60
2023/09/11 06:23:12;;;;;;;;;;;;;;;28.80;40.16;94284.34;5011034;28;8043;-61
2023/09/11 06:26:00;;;;;;;;;;;;;;;28.81;40.09;94283.09;5011222;28;9465;-61
2023/09/11 06:28:39;;;;;;;;;;;;;;;28.80;40.15;94281.56;5006529;28;7242;-61
2023/09/11 06:31:14;;;;;;;;;;;;;;;28.81;39.70;94287.88;5013669;28;7055;-61
2023/09/11 06:33:45;;;;;;;;;;;;;;;28.79;39.55;94282.88;4999138;28;7222;-60
2023/09/11 06:36:11;;;;;;;;;;;;;;;28.71;39.58;94282.00;4995708;28;7180;-60
2023/09/11 06:38:45;;;;;;;;;;;;;;;28.74;40.03;94292.03;4975301;28;8953;-61
2023/09/11 06:41:34;;;;;;;;;;;;;;;28.72;39.95;94289.06;5019466;28;8872;-60
2023/09/11 06:44:02;;;;;;;;;;;;;;;28.71;40.12;94290.31;5020177;28;8826;-60
2023/09/11 06:46:28;;;;;;;;;;;;;;;28.70;39.74;94288.84;5007908;28;9256;-60
2023/09/11 06:49:00;;;;;;;;;;;;;;;28.70;40.57;94288.84;5002069;28;9340;-60
2023/09/11 06:51:47;;;;;;;;;;;;;;;28.70;40.09;94290.84;4992138;28;7344;-60
2023/09/11 06:54:18;;;;;;;;;;;;;;;28.71;40.05;94281.28;4997455;28;7338;-64
2023/09/11 06:56:53;;;;;;;;;;;;;;;28.73;40.37;94281.50;5012871;28;9067;-55
2023/09/11 06:59:29;;;;;;;;;;;;;;;28.77;40.45;94285.44;5014157;28;7433;-56
2023/09/11 07:01:56;;;;;;;;;;;;;;;28.77;40.98;94285.44;5015730;28;8938;-55
2023/09/11 07:04:22;;;;;;;;;;;;;;;28.78;41.00;94286.91;5012071;28;7910;-55
2023/09/11 07:06:51;;;;;;;;;;;;;;;28.79;40.98;94282.88;5005854;28;7276;-56
2023/09/11 07:09:27;;;;;;;;;;;;;;;28.82;41.52;94286.56;5007265;28;7266;-56
2023/09/11 07:12:05;;;;;;;;;;;;;;;28.81;41.18;94285.84;4999423;28;7235;-56
2023/09/11 07:14:37;;;;;;;;;;;;;;;28.78;41.89;94275.09;5008822;28;9260;-55
2023/09/11 07:17:31;;;;;;;;;;;;;;;28.84;42.66;94282.00;5000082;28;7231;-55
2023/09/11 07:20:09;;;;;;;;;;;;;;;28.85;41.63;94286.25;4996018;28;8861;-55
2023/09/11 07:22:36;;;;;;;;;;;;;;;28.86;41.97;94290.50;4990756;28;7227;-55
2023/09/11 07:25:04;;;;;;;;;;;;;;;28.86;42.20;94287.03;5016958;28;8974;-55
2023/09/11 07:27:35;;;;;;;;;;;;;;;28.89;42.15;94286.69;4993089;28;7302;-55
2023/09/11 07:30:03;;;;;;;;;;;;;;;28.89;41.49;94291.47;5012584;28;7438;-55
2023/09/11 07:32:47;;;;;;;;;;;;;;;28.89;41.80;94292.22;4998163;28;7046;-56
2023/09/11 07:35:58;;;;;;;;;;;;;;;28.90;42.51;94293.72;5011480;28;7545;-56
2023/09/11 07:38:24;;;;;;;;;;;;;;;28.90;42.08;94293.72;4937056;28;7006;-56
2023/09/11 07:40:58;;;;;;;;;;;;;;;28.91;41.95;94289.66;4952475;28;9277;-56
2023/09/11 07:43:25;;;;;;;;;;;;;;;28.92;42.15;94287.63;4935815;28;6983;-56
2023/09/11 07:45:51;;;;;;;;;;;;;;;28.93;41.77;94287.09;4954815;28;6999;-56
2023/09/11 07:48:46;;;;;;;;;;;;;;;28.94;42.38;94288.59;4940783;28;7315;-56
2023/09/11 07:51:31;;;;;;;;;;;;;;;28.94;42.68;94293.38;4952654;28;7628;-55
2023/09/11 07:54:02;;;;;;;;;;;;;;;28.93;43.05;94289.13;4945761;28;8756;-56
2023/09/11 07:56:43;;;;;;;;;;;;;;;28.96;42.70;94297.09;4947569;28;7061;-55
2023/09/11 07:59:39;;;;;;;;;;;;;;;28.96;42.97;94288.81;4940013;28;7243;-55
2023/09/11 08:02:05;;;;;;;;;;;;;;;28.97;41.97;94295.09;4926451;29;7173;-56
2023/09/11 08:04:45;;;;;;;;;;;;;;;28.98;42.33;94291.03;4927933;29;9311;-61
2023/09/11 08:07:23;;;;;;;;;;;;;;;28.98;42.83;94289.00;4931563;29;7218;-61
2023/09/11 08:10:00;;;;;;;;;;;;;;;29.02;41.70;94302.53;4912034;29;7610;-60
2023/09/11 08:12:35;;;;;;;;;;;;;;;28.98;42.23;94293.78;4930459;29;7197;-61
2023/09/11 08:15:09;;;;;;;;;;;;;;;29.00;42.79;94291.22;4948507;28;7238;-61
2023/09/11 08:18:09;;;;;;;;;;;;;;;29.01;42.20;94295.50;4967646;28;7273;-61
2023/09/11 08:20:37;;;;;;;;;;;;;;;29.00;42.87;94300.28;4892221;29;7226;-61
2023/09/11 08:23:16;;;;;;;;;;;;;;;29.02;42.32;94292.19;4900045;29;7481;-61
2023/09/11 08:25:57;;;;;;;;;;;;;;;29.02;43.15;94288.66;4893659;29;7047;-61
2023/09/11 08:28:36;;;;;;;;;;;;;;;29.02;42.53;94294.22;4889667;29;7207;-61
2023/09/11 08:31:12;;;;;;;;;;;;;;;29.01;42.07;94293.47;4877321;29;7261;-61
2023/09/11 08:33:56;;;;;;;;;;;;;;;29.01;43.42;94299.00;4883346;29;7471;-61
2023/09/11 08:36:35;;;;;;;;;;;;;;;29.01;42.16;94304.53;4894263;29;7206;-61
2023/09/11 08:39:01;;;;;;;;;;;;;;;29.00;42.49;94300.28;4920144;28;8761;-61
2023/09/11 08:41:44;;;;;;;;;;;;;;;29.01;43.09;94299.00;4932800;28;9201;-61
2023/09/11 08:44:29;;;;;;;;;;;;;;;29.02;42.84;94297.72;4931042;28;7172;-61
2023/09/11 08:46:59;;;;;;;;;;;;;;;29.03;43.33;94299.22;4937998;28;7241;-60
2023/09/11 08:49:33;;;;;;;;;;;;;;;29.03;42.69;94299.22;4923219;29;7280;-61
2023/09/11 08:52:19;;;;;;;;;;;;;;;29.01;42.93;94299.00;4932428;29;7289;-61
2023/09/11 08:55:10;;;;;;;;;;;;;;;29.00;42.16;94294.75;4930903;29;10011;-61
2023/09/11 08:57:40;;;;;;;;;;;;;;;29.01;42.06;94298.28;5007451;28;7231;-61
2023/09/11 09:00:14;;;;;;;;;;;;;;;29.03;42.50;94298.47;5008873;28;7463;-61
2023/09/11 09:03:12;;;;;;;;;;;;;;;29.04;42.52;94294.41;4996647;28;7205;-61
2023/09/11 09:05:57;;;;;;;;;;;;;;;29.04;42.27;94292.41;4934412;28;10230;-61
2023/09/11 09:08:37;;;;;;;;;;;;;;;29.03;42.92;94288.16;4930199;28;7317;-61
2023/09/11 09:11:12;;;;;;;;;;;;;;;29.05;41.89;94299.44;4952482;28;7217;-61
2023/09/11 09:14:08;;;;;;;;;;;;;;;29.06;42.81;94289.09;4945739;28;7250;-61
2023/09/11 09:16:37;;;;;;;;;;;;;;;29.05;43.21;94291.13;4888034;29;7274;-65
2023/09/11 09:19:12;;;;;;;;;;;;;;;29.03;42.44;94285.38;4891332;29;9315;-65
2023/09/11 09:22:07;;;;;;;;;;;;;;;29.07;42.86;94283.03;4886575;29;7305;-66
2023/09/11 09:24:54;;;;;;;;;;;;;;;29.08;42.12;94276.19;4893508;29;8731;-66
2023/09/11 09:27:35;;;;;;;;;;;;;;;29.08;41.95;94276.19;4893162;29;7935;-66
2023/09/11 09:30:37;;;;;;;;;;;;;;;29.08;42.86;94273.41;4889116;29;9314;-65
2023/09/11 09:33:16;;;;;;;;;;;;;;;29.10;42.25;94273.63;4891278;29;8895;-65
2023/09/11 09:35:54;;;;;;;;;;;;;;;29.12;42.93;94273.13;4886782;29;8766;-65
2023/09/11 09:38:21;;;;;;;;;;;;;;;29.13;42.49;94271.06;4877836;29;7571;-65
2023/09/11 09:41:09;;;;;;;;;;;;;;;29.14;42.03;94267.03;4879770;29;7227;-65
2023/09/11 09:44:22;;;;;;;;;;;;;;;29.14;42.94;94278.09;4936611;28;9193;-65
2023/09/11 09:46:48;;;;;;;;;;;;;;;29.13;42.66;94269.03;4884216;29;7020;-66
2023/09/11 09:49:52;;;;;;;;;;;;;;;29.13;43.09;94263.50;4879966;29;7491;-66
2023/09/11 09:52:27;;;;;;;;;;;;;;;29.15;43.15;94260.94;4871996;29;9140;-66
2023/09/11 09:55:08;;;;;;;;;;;;;;;29.16;42.45;94253.38;4923260;29;7673;-66
2023/09/11 09:57:54;;;;;;;;;;;;;;;29.15;42.36;94254.66;4932183;29;7434;-65
2023/09/11 10:00:20;;;;;;;;;;;;;;;29.18;42.82;94253.63;4916211;29;8840;-66
2023/09/11 10:02:57;;;;;;;;;;;;;;;29.17;42.20;94249.38;4927889;28;6990;-66
2023/09/11 10:05:24;;;;;;;;;;;;;;;29.18;42.23;94259.16;4931737;28;7014;-66
2023/09/11 10:07:52;;;;;;;;;;;;;;;29.17;43.05;94249.38;4911617;29;8467;-65
2023/09/11 10:10:30;;;;;;;;;;;;;;;29.17;42.23;94243.84;4915606;29;9292;-65
2023/09/11 10:13:04;;;;;;;;;;;;;;;29.18;42.87;94242.53;4917934;29;7224;-65
2023/09/11 10:15:32;;;;;;;;;;;;;;;29.17;42.92;94247.31;4920018;29;6983;-66
2023/09/11 10:18:02;;;;;;;;;;;;;;;29.15;43.04;94240.81;4921599;28;7223;-65
2023/09/11 10:20:31;;;;;;;;;;;;;;;29.17;43.02;94241.06;4926763;29;7151;-66
2023/09/11 10:23:26;;;;;;;;;;;;;;;29.17;42.38;94238.28;4943673;28;7241;-65
2023/09/11 10:26:02;;;;;;;;;;;;;;;29.16;43.27;94237.53;4989934;28;9161;-61
2023/09/11 10:28:44;;;;;;;;;;;;;;;29.20;43.30;94234.44;5014238;28;7010;-61
2023/09/11 10:31:42;;;;;;;;;;;;;;;29.19;42.26;94233.69;4982070;28;7227;-61
2023/09/11 10:34:10;;;;;;;;;;;;;;;29.20;42.41;94232.41;4995702;28;7376;-61
2023/09/11 10:36:48;;;;;;;;;;;;;;;29.20;43.42;94231.66;5012287;28;8754;-61
2023/09/11 10:39:18;;;;;;;;;;;;;;;29.19;43.03;94230.91;5009884;28;7208;-61
2023/09/11 10:41:45;;;;;;;;;;;;;;;29.19;43.13;94232.97;5010405;28;7001;-61
2023/09/11 10:44:11;;;;;;;;;;;;;;;29.19;42.90;94235.72;5008540;28;7070;-62
2023/09/11 10:46:39;;;;;;;;;;;;;;;29.18;42.76;94223.16;5011116;28;8737;-61
2023/09/11 10:49:20;;;;;;;;;;;;;;;29.17;42.98;94225.16;5010442;28;7025;-61
2023/09/11 10:51:54;;;;;;;;;;;;;;;29.20;43.26;94220.56;5025272;28;7236;-61
2023/09/11 10:54:22;;;;;;;;;;;;;;;29.19;42.63;94224.66;5013322;28;6997;-61
2023/09/11 10:57:05;;;;;;;;;;;;;;;29.19;42.90;94219.81;5004990;28;6995;-62
2023/09/11 10:59:37;;;;;;;;;;;;;;;29.19;43.11;94219.81;4993025;28;7222;-61
2023/09/11 11:02:15;;;;;;;;;;;;;;;29.19;43.32;94208.03;5009815;28;6986;-61
2023/09/11 11:04:42;;;;;;;;;;;;;;;29.22;42.88;94212.47;5019048;28;7053;-61
2023/09/11 11:07:12;;;;;;;;;;;;;;;29.23;43.19;94208.44;5010908;28;6986;-62
2023/09/11 11:09:40;;;;;;;;;;;;;;;29.21;43.51;94205.47;5013093;28;7199;-61
2023/09/11 11:12:13;;;;;;;;;;;;;;;29.25;42.48;94205.88;5014533;28;7306;-61
2023/09/11 11:14:39;;;;;;;;;;;;;;;29.25;43.21;94206.63;5008671;28;7254;-61
2023/09/11 11:17:37;;;;;;;;;;;;;;;29.26;42.96;94196.25;5012561;28;7003;-61
2023/09/11 11:20:07;;;;;;;;;;;;;;;29.30;43.55;94202.19;5009451;28;7457;-61
2023/09/11 11:22:41;;;;;;;;;;;;;;;29.30;43.32;94196.66;5010833;28;7766;-62
2023/09/11 11:25:10;;;;;;;;;;;;;;;29.30;43.20;94196.66;5007207;28;6992;-61
2023/09/11 11:27:41;;;;;;;;;;;;;;;29.31;43.34;94185.06;5011198;28;7516;-61
2023/09/11 11:30:09;;;;;;;;;;;;;;;29.33;42.47;94188.03;4991880;28;7433;-62
2023/09/11 11:32:44;;;;;;;;;;;;;;;29.34;43.67;94180.47;5004413;28;7284;-61
2023/09/11 11:35:14;;;;;;;;;;;;;;;29.34;42.83;94183.25;5006998;28;7093;-61
2023/09/11 11:37:52;;;;;;;;;;;;;;;29.32;42.83;94183.75;5016255;28;7099;-60
2023/09/11 11:40:20;;;;;;;;;;;;;;;29.34;43.29;94178.41;5006426;28;7338;-61
2023/09/11 11:42:52;;;;;;;;;;;;;;;29.35;42.99;94187.47;5013162;28;7493;-60
2023/09/11 11:45:58;;;;;;;;;;;;;;;29.34;42.43;94186.72;4996327;28;6990;-61
2023/09/11 11:48:27;;;;;;;;;;;;;;;29.37;43.23;94182.13;4999179;28;8767;-61
2023/09/11 11:50:55;;;;;;;;;;;;;;;29.34;43.02;94174.94;4997213;28;7440;-61
2023/09/11 11:53:26;;;;;;;;;;;;;;;29.36;42.70;94180.66;4997955;28;7240;-61
2023/09/11 11:56:23;;;;;;;;;;;;;;;29.41;43.21;94174.22;4984399;28;8832;-61
2023/09/11 11:59:00;;;;;;;;;;;;;;;29.42;43.26;94178.50;4936192;28;7233;-61
2023/09/11 12:01:37;;;;;;;;;;;;;;;29.44;42.85;94173.16;4936507;28;7252;-61
2023/09/11 12:04:16;;;;;;;;;;;;;;;29.45;43.70;94180.91;4932822;28;6947;-61
2023/09/11 12:06:44;;;;;;;;;;;;;;;29.46;43.27;94170.59;4944825;28;7070;-61
2023/09/11 12:09:56;;;;;;;;;;;;;;;29.46;43.54;94165.03;4949307;28;7326;-61
2023/09/11 12:12:37;;;;;;;;;;;;;;;29.45;43.68;94163.56;4889108;29;9146;-61
2023/09/11 12:15:19;;;;;;;;;;;;;;;29.45;43.26;94158.75;4894673;29;7150;-61
2023/09/11 12:17:55;;;;;;;;;;;;;;;29.47;43.51;94163.78;4871513;29;6995;-61
2023/09/11 12:20:24;;;;;;;;;;;;;;;29.49;42.98;94163.97;4888798;29;9155;-61
2023/09/11 12:23:12;;;;;;;;;;;;;;;29.50;42.92;94159.91;4892771;29;7196;-61
2023/09/11 12:25:40;;;;;;;;;;;;;;;29.52;42.96;94155.31;4882091;29;7194;-61
2023/09/11 12:28:25;;;;;;;;;;;;;;;29.51;43.57;94151.06;4887845;29;6999;-61
2023/09/11 12:31:06;;;;;;;;;;;;;;;29.54;43.52;94154.75;4888653;29;7006;-61
2023/09/11 12:34:09;;;;;;;;;;;;;;;29.54;42.99;94151.97;4896429;29;7192;-61
2023/09/11 12:36:47;;;;;;;;;;;;;;;29.56;43.15;94155.69;4944802;28;6998;-61
2023/09/11 12:39:22;;;;;;;;;;;;;;;29.57;43.00;94153.69;4920274;29;9047;-61
2023/09/11 12:41:49;;;;;;;;;;;;;;;29.60;42.88;94152.59;4916873;29;6896;-61
2023/09/11 12:44:34;;;;;;;;;;;;;;;29.60;42.43;94152.59;4938621;28;7082;-64
2023/09/11 12:47:13;;;;;;;;;;;;;;;29.60;43.01;94149.84;4926059;28;7065;-55
2023/09/11 12:49:43;;;;;;;;;;;;;;;29.60;42.87;94152.59;4980547;28;7059;-55
2023/09/11 12:52:35;;;;;;;;;;;;;;;29.57;43.96;94139.81;5016891;28;7143;-56
2023/09/11 12:55:25;;;;;;;;;;;;;;;29.58;43.47;94144.81;4949913;28;8951;-56
2023/09/11 12:58:36;;;;;;;;;;;;;;;29.61;43.14;94140.97;4941566;28;7237;-56
2023/09/11 13:01:16;;;;;;;;;;;;;;;29.62;42.99;94136.16;4863999;29;7230;-56
2023/09/11 13:03:51;;;;;;;;;;;;;;;29.63;43.57;94123.78;4881171;29;8766;-56
2023/09/11 13:06:20;;;;;;;;;;;;;;;29.62;42.96;94127.84;4875165;29;8793;-55
2023/09/11 13:09:05;;;;;;;;;;;;;;;29.60;43.51;94122.13;4875981;29;8995;-55
2023/09/11 13:11:31;;;;;;;;;;;;;;;29.63;43.60;94118.22;4880142;29;7190;-56
2023/09/11 13:14:05;;;;;;;;;;;;;;;29.60;43.31;94122.84;4885993;29;8745;-55
2023/09/11 13:16:43;;;;;;;;;;;;;;;29.64;43.68;94126.03;4869479;29;7271;-56
2023/09/11 13:19:23;;;;;;;;;;;;;;;29.61;42.94;94116.00;4880188;29;7069;-55
2023/09/11 13:22:05;;;;;;;;;;;;;;;29.63;43.97;94115.47;4885062;29;9509;-56
2023/09/11 13:24:46;;;;;;;;;;;;;;;29.66;43.13;94123.44;4871675;29;7253;-55
2023/09/11 13:27:24;;;;;;;;;;;;;;;29.65;43.43;94119.19;4866836;29;7005;-56
2023/09/11 13:29:50;;;;;;;;;;;;;;;29.65;43.73;94121.94;4876258;29;8920;-55
2023/09/11 13:32:48;;;;;;;;;;;;;;;29.68;42.75;94125.66;4905078;29;7615;-56
2023/09/11 13:35:29;;;;;;;;;;;;;;;29.69;43.60;94125.13;4938142;28;8387;-56
2023/09/11 13:38:02;;;;;;;;;;;;;;;29.71;42.73;94114.22;4976335;28;9615;-56
2023/09/11 13:40:40;;;;;;;;;;;;;;;29.72;43.36;94114.97;5000933;28;7415;-55
2023/09/11 13:43:11;;;;;;;;;;;;;;;29.73;43.50;94113.69;4997135;28;7310;-56
2023/09/11 13:45:38;;;;;;;;;;;;;;;29.74;43.55;94109.66;5015263;28;7217;-55
2023/09/11 13:48:26;;;;;;;;;;;;;;;29.75;43.39;94102.84;5010458;28;7518;-55
2023/09/11 13:51:12;;;;;;;;;;;;;;;29.77;43.05;94100.25;4980534;28;9016;-56
2023/09/11 13:53:42;;;;;;;;;;;;;;;29.77;43.79;94098.22;5000406;28;7247;-55
2023/09/11 13:56:09;;;;;;;;;;;;;;;29.77;43.74;94100.25;5013815;28;8917;-61
2023/09/11 13:58:48;;;;;;;;;;;;;;;29.80;43.35;94104.69;5004365;28;9037;-61